Flight Track Log - Related Links

Times and Time Zones

All times are in EDT time to prevent confusion due to time zone crossing. See the SWA286 flight status page for this flight to view local times or setup timezone preferences in your user account.

Time Position Orientation Groundspeed Altitude Reporting Facility
EDT Latitude Longitude Course Direction KTS MPH feet Rate Location/Type
Thu 05:02:25 PM 39.1167 -76.6167 142° Southeast 204 235 2,800  Level Potomac TRACON
Thu 05:03:26 PM 39.0667 -76.5667 142° Southeast 258 297 4,800 3,025 Climbing Potomac TRACON
Thu 05:04:26 PM 38.9833 -76.5167 155° Southeast 277 319 8,900 2,676 Climbing Potomac TRACON
Thu 05:06:50 PM 38.7908 -76.5264 182° South 305 351 13,900 1,794 Climbing Washington Center
Thu 05:07:50 PM 38.7133 -76.5947 215° Southwest 313 360 15,000 2,050 Climbing Washington Center
Thu 05:08:50 PM 38.6333 -76.6628 214° Southwest 334 384 18,000 2,900 Climbing Washington Center
Thu 05:09:50 PM 38.5475 -76.7225 209° Southwest 348 400 20,800 2,650 Climbing Washington Center
Thu 05:10:50 PM 38.4392 -76.7131 176° South 368 423 23,300 2,100 Climbing Washington Center
Thu 05:11:50 PM 38.3244 -76.6953 173° South 385 443 25,000 1,550 Climbing Washington Center
Thu 05:12:50 PM 38.2183 -76.6781 173° South 408 470 26,400 1,750 Climbing Washington Center
Thu 05:13:50 PM 38.0956 -76.6631 175° South 430 495 28,500 2,200 Climbing Washington Center
Thu 05:14:50 PM 37.9622 -76.6453 174° South 449 517 30,800 2,000 Climbing Washington Center
Thu 05:15:50 PM 37.8414 -76.6278 173° South 449 517 32,500 1,600 Climbing Washington Center
Thu 05:16:50 PM 37.7183 -76.6131 175° South 444 511 34,000 1,300 Climbing Washington Center
Thu 05:17:50 PM 37.5956 -76.5956 174° South 444 511 35,100 1,000 Climbing Washington Center
Thu 05:18:50 PM 37.4892 -76.5811 174° South 444 511 36,000 450 Climbing Washington Center
Thu 05:19:50 PM 37.3683 -76.5667 175° South 444 511 36,000  Level Washington Center
Thu 05:20:50 PM 37.2453 -76.5572 177° South 444 511 36,000  Level Washington Center
Thu 05:21:50 PM 37.1344 -76.6078 200° South 427 491 36,000  Level Washington Center
Thu 05:22:50 PM 37.0256 -76.6586 200° South 420 483 36,000  Level Washington Center
Thu 05:23:50 PM 36.9186 -76.7117 202° Southwest 420 483 36,000  Level Washington Center
Thu 05:24:50 PM 36.8117 -76.7619 201° Southwest 420 483 36,000  Level Washington Center
Thu 05:25:50 PM 36.7028 -76.8147 201° Southwest 420 483 36,000  Level Washington Center
Thu 05:26:50 PM 36.5936 -76.8647 200° South 420 483 36,000  Level Washington Center
Thu 05:27:50 PM 36.4867 -76.9147 201° Southwest 415 478 36,000  Level Washington Center
Thu 05:28:50 PM 36.3778 -76.9669 201° Southwest 415 478 36,000  Level Washington Center
Thu 05:29:50 PM 36.2686 -77.0142 199° South 415 478 36,000  Level Washington Center
Thu 05:30:50 PM 36.1575 -77.0661 201° Southwest 415 478 36,000  Level Washington Center
Thu 05:31:50 PM 36.0483 -77.1153 200° South 415 478 36,000  Level Washington Center
Thu 05:32:50 PM 35.9456 -77.1647 201° Southwest 410 472 36,000  Level Washington Center
Thu 05:33:50 PM 35.8364 -77.2139 200° South 416 479 36,000  Level Washington Center
Thu 05:34:50 PM 35.7272 -77.2603 199° South 421 484 36,000  Level Washington Center
Thu 05:35:50 PM 35.6158 -77.3142 201° Southwest 421 484 36,000  Level Washington Center
Thu 05:36:50 PM 35.5067 -77.3603 199° South 421 484 36,000  Level Washington Center
Thu 05:37:50 PM 35.3975 -77.4089 200° South 426 490 36,000  Level Washington Center
Thu 05:38:50 PM 35.2861 -77.4597 200° South 426 490 36,000  Level Washington Center
Thu 05:39:50 PM 35.1747 -77.5106 200° South 426 490 36,000  Level Washington Center
Thu 05:40:50 PM 35.0633 -77.5586 199° South 431 496 36,000  Level Washington Center
Thu 05:41:50 PM 34.9539 -77.6067 200° South 431 496 36,000  Level Washington Center
Thu 05:42:50 PM 34.8447 -77.6544 200° South 431 496 36,000  Level Washington Center
Thu 05:43:50 PM 34.7372 -77.7075 202° Southwest 431 496 36,000  Level Washington Center
Thu 05:44:50 PM 34.6300 -77.7553 200° South 426 490 36,000  Level Washington Center
Thu 05:45:50 PM 34.5186 -77.8025 199° South 426 490 36,000 -350 Level Washington Center
Thu 05:46:50 PM 34.4092 -77.8525 201° Southwest 426 490 35,300 -800 Descending Washington Center
Thu 05:47:50 PM 34.2958 -77.8947 197° South 431 496 34,400 -494 Descending Washington Center
Thu 05:49:28 PM 34.1025 -77.9447 192° South 438 504 34,000 -152 Descending Jacksonville Center
Thu 05:50:28 PM 33.9869 -77.9789 194° South 433 498 34,000  Level Jacksonville Center
Thu 05:51:28 PM 33.8714 -78.0103 193° South 433 498 34,000  Level Jacksonville Center
Thu 05:52:28 PM 33.7517 -78.0469 194° South 433 498 34,000 -1,000 Level Jacksonville Center
Thu 05:53:28 PM 33.6197 -78.0867 194° South 440 506 32,000 -1,000 Descending Jacksonville Center
Thu 05:54:28 PM 33.5000 -78.1206 193° South 445 512 32,000  Level Jacksonville Center
Thu 05:55:28 PM 33.3844 -78.1542 194° South 445 512 32,000  Level Jacksonville Center
Thu 05:56:28 PM 33.2625 -78.1853 192° South 445 512 32,000  Level Jacksonville Center
Thu 05:57:28 PM 33.1406 -78.2192 193° South 450 518 32,000  Level Jacksonville Center
Thu 05:58:28 PM 33.0208 -78.2550 194° South 450 518 32,000  Level Jacksonville Center
Thu 05:59:28 PM 32.8989 -78.2886 193° South 450 518 32,000  Level Jacksonville Center
Thu 06:00:28 PM 32.7750 -78.3244 194° South 450 518 32,000  Level Jacksonville Center
Thu 06:01:28 PM 32.6511 -78.3603 194° South 450 518 32,000  Level Jacksonville Center
Thu 06:02:28 PM 32.5250 -78.3914 192° South 456 525 32,000  Level Jacksonville Center
Thu 06:03:28 PM 32.3989 -78.4269 193° South 456 525 32,000  Level Jacksonville Center
Thu 06:04:28 PM 32.2914 -78.4619 195° South 456 525 32,000 -500 Level Jacksonville Center
Thu 06:05:28 PM 32.1656 -78.4997 194° South 456 525 31,000 -950 Descending Jacksonville Center
Thu 06:06:28 PM 32.0458 -78.5375 195° South 456 525 30,100 -500 Descending Jacksonville Center
Thu 06:07:28 PM 31.9217 -78.5728 194° South 456 525 30,000 -50 Descending Jacksonville Center
Thu 06:08:28 PM 31.7997 -78.6053 193° South 456 525 30,000  Level Jacksonville Center
Thu 06:09:28 PM 31.6736 -78.6403 193° South 461 531 30,000  Level Jacksonville Center
Thu 06:10:28 PM 31.5475 -78.6803 195° South 461 531 30,000  Level Jacksonville Center
Thu 06:11:28 PM 31.4233 -78.7125 192° South 466 536 30,000  Level Jacksonville Center
Thu 06:12:28 PM 31.2950 -78.7500 194° South 472 543 30,000  Level Jacksonville Center
Thu 06:13:28 PM 31.1669 -78.7897 195° South 472 543 30,000  Level Jacksonville Center
Thu 06:14:28 PM 31.0408 -78.8267 194° South 467 537 30,000  Level Jacksonville Center
Thu 06:15:28 PM 30.9042 -78.8617 192° South 465 535 30,000  Level Jacksonville Center
Thu 06:16:28 PM 30.7800 -78.8983 194° South 471 542 30,000  Level Jacksonville Center
Thu 06:17:28 PM 30.6475 -78.9328 193° South 473 544 30,000  Level Jacksonville Center
Thu 06:19:44 PM 30.3786 -79.0169 195° South 459 528 30,000  Level Miami Center
Thu 06:20:44 PM 30.2550 -79.0672 199° South 470 541 30,000  Level Miami Center
Thu 06:21:44 PM 30.1206 -79.1269 201° Southwest 478 550 30,000 -150 Level Miami Center
Thu 06:22:44 PM 30.0092 -79.1892 206° Southwest 472 543 29,700 -650 Descending Miami Center
Thu 06:23:44 PM 29.8833 -79.2319 196° South 472 543 28,700 -1,350 Descending Miami Center
Thu 06:24:44 PM 29.7656 -79.2892 203° Southwest 466 536 27,000 -850 Descending Miami Center
Thu 06:25:44 PM 29.6606 -79.3369 202° Southwest 466 536 27,000  Level Miami Center
Thu 06:26:44 PM 29.5386 -79.3889 200° South 461 531 27,000  Level Miami Center
Thu 06:27:44 PM 29.4189 -79.4386 200° South 461 531 27,000  Level Miami Center
Thu 06:28:44 PM 29.2989 -79.4881 200° South 466 536 27,000  Level Miami Center
Thu 06:29:44 PM 29.1750 -79.5350 198° South 461 531 27,000  Level Miami Center
Thu 06:30:44 PM 29.0614 -79.5892 203° Southwest 467 537 27,000  Level Miami Center
Thu 06:31:44 PM 28.9456 -79.6433 202° Southwest 462 532 27,000  Level Miami Center
Thu 06:32:44 PM 28.8317 -79.7067 206° Southwest 450 518 27,000  Level Miami Center
Thu 06:33:44 PM 28.7625 -79.8233 236° Southwest 434 499 27,000  Level Miami Center
Thu 06:34:44 PM 28.6914 -79.9375 235° Southwest 434 499 27,000 -200 Level Miami Center
Thu 06:35:44 PM 28.6239 -80.0608 238° Southwest 441 507 26,600 -1,450 Descending Miami Center
Thu 06:36:44 PM 28.5650 -80.1681 238° Southwest 423 487 24,100 -1,300 Descending Miami Center
Thu 06:37:44 PM 28.5128 -80.2681 239° Southwest 418 481 24,000 -50 Descending Miami Center
Thu 06:38:44 PM 28.4619 -80.3822 243° Southwest 408 470 24,000 -500 Level Miami Center
Thu 06:39:44 PM 28.4128 -80.5128 247° West 408 470 23,000 -1,000 Descending Miami Center
Thu 06:40:44 PM 28.3311 -80.6019 224° Southwest 403 464 22,000 -1,000 Descending Miami Center
Thu 06:41:44 PM 28.2272 -80.6644 208° Southwest 405 466 21,000 -1,000 Descending Miami Center
Thu 06:42:44 PM 28.1317 -80.7319 212° Southwest 416 479 20,000 -500 Descending Miami Center
Thu 06:43:44 PM 28.0336 -80.7992 211° Southwest 416 479 20,000 -350 Level Miami Center
Thu 06:44:44 PM 27.9361 -80.8617 210° Southwest 411 473 19,300 -950 Descending Miami Center
Thu 06:45:44 PM 27.8467 -80.9242 212° Southwest 406 467 18,100 -1,150 Descending Miami Center
Thu 06:46:44 PM 27.7636 -80.9797 211° Southwest 365 420 17,000 -1,100 Descending Miami Center
Thu 06:47:44 PM 27.6911 -81.0289 211° Southwest 332 382 15,900 -950 Descending Miami Center
Thu 06:48:44 PM 27.6231 -81.0756 211° Southwest 318 366 15,100 -850 Descending Miami Center
Thu 06:49:44 PM 27.5400 -81.1286 210° Southwest 337 388 14,200 -1,000 Descending Miami Center
Thu 06:50:44 PM 27.4506 -81.1908 212° Southwest 343 395 13,100 -1,050 Descending Miami Center
Thu 06:51:44 PM 27.3717 -81.2439 211° Southwest 343 395 12,100 -950 Descending Miami Center
Thu 06:52:44 PM 27.2972 -81.2903 209° Southwest 343 395 11,200 -1,050 Descending Miami Center
Thu 06:53:44 PM 27.2228 -81.3411 211° Southwest 331 381 10,000 -650 Descending Miami Center
Thu 06:54:44 PM 27.1375 -81.3961 210° Southwest 326 375 9,900 -50 Descending Miami Center
Thu 06:55:44 PM 27.0628 -81.4469 211° Southwest 326 375 9,900  Level Miami Center
Thu 06:56:44 PM 26.9828 -81.4717 195° South 297 342 9,900 -150 Level Miami Center
Thu 06:57:44 PM 26.9108 -81.4339 155° Southeast 284 327 9,600 -850 Descending Miami Center
Thu 06:58:44 PM 26.8408 -81.3986 156° South 276 318 8,200 -1,500 Descending Miami Center
Thu 06:59:44 PM 26.7597 -81.3883 174° South 276 318 6,600 -1,450 Descending Miami Center
Thu 07:00:44 PM 26.6886 -81.3972 186° South 266 306 5,300 -1,300 Descending Miami Center
Thu 07:01:44 PM 26.6347 -81.4464 219° Southwest 251 289 4,000 -650 Descending Miami Center
Thu 07:02:44 PM 26.5953 -81.5075 234° Southwest 258 297 4,000  Level Miami Center
Thu 07:03:44 PM 26.5514 -81.5778 235° Southwest 263 303 4,000  Level Miami Center
Thu 07:05:00 PM 26.5381 -81.7324 318° Northwest  Level Estimated
Thu 07:12:00 PM 26.5333 -81.7500 318° Northwest  Level FlightAware Approximate
Thu 07:13:00 PM 26.5362 -81.7552 318° Northwest  Level Estimated
Thu 07:14:00 PM 26.5333 -81.7500 318° Northwest  Level FlightAware Approximate
Thu 07:15:00 PM 26.5362 -81.7552 318° Northwest  Level Estimated
Thu 07:16:00 PM 26.5333 -81.7500 318° Northwest  Level FlightAware Approximate
Thu 07:17:00 PM 26.5362 -81.7552 318° Northwest  Level Estimated
Thu 07:18:00 PM 26.5333 -81.7500 318° Northwest  Level FlightAware Approximate
Thu 07:19:00 PM 26.5362 -81.7552 318° Northwest  Level Estimated
Thu 07:20:00 PM 26.5333 -81.7500 318° Northwest  Level FlightAware Approximate
Thu 07:21:00 PM 26.5362 -81.7552 318° Northwest  Level Estimated
Thu 07:22:00 PM 26.5333 -81.7500 318° Northwest  Level FlightAware Approximate

Login

Don't have an account? Register now (free) for customized features, flight alerts, and more!